createdAt,value
2022-11-01T00:02:17.258Z,100.00
2022-11-01T00:04:45.235Z,100.00
2022-11-01T00:07:14.525Z,100.00
2022-11-01T00:09:42.500Z,100.00
2022-11-01T00:12:10.475Z,100.00
2022-11-01T00:14:38.541Z,100.00
2022-11-01T00:17:06.500Z,100.00
2022-11-01T00:19:34.436Z,100.00
2022-11-01T00:22:02.450Z,100.00
2022-11-01T00:24:31.919Z,100.00
2022-11-01T00:27:00.042Z,100.00
2022-11-01T00:29:28.038Z,100.00
2022-11-01T00:31:55.997Z,100.00
2022-11-01T00:34:24.045Z,100.00
2022-11-01T00:36:52.094Z,100.00
2022-11-01T00:39:20.366Z,100.00
2022-11-01T00:41:49.738Z,100.00
2022-11-01T00:44:17.696Z,100.00
2022-11-01T00:46:45.637Z,100.00
2022-11-01T00:49:13.649Z,100.00
2022-11-01T00:51:41.663Z,100.00
2022-11-01T00:54:09.683Z,100.00
2022-11-01T00:56:37.797Z,100.00
2022-11-01T00:59:07.263Z,100.00
2022-11-01T01:01:35.280Z,100.00
2022-11-01T01:04:03.985Z,100.00
2022-11-01T01:06:31.905Z,100.00
2022-11-01T01:09:00.705Z,100.00
2022-11-01T01:11:28.651Z,100.00
2022-11-01T01:13:56.674Z,100.00
2022-11-01T01:16:26.200Z,100.00
2022-11-01T01:18:54.133Z,100.00
2022-11-01T01:21:22.126Z,100.00
2022-11-01T01:23:51.522Z,100.00
2022-11-01T01:26:19.517Z,100.00
2022-11-01T01:28:47.491Z,100.00
2022-11-01T01:31:15.442Z,100.00
2022-11-01T01:33:44.834Z,100.00
2022-11-01T01:36:12.854Z,100.00
2022-11-01T01:38:40.809Z,100.00
2022-11-01T01:41:26.343Z,100.00
2022-11-01T01:43:54.376Z,100.00
2022-11-01T01:46:22.365Z,100.00
2022-11-01T01:48:54.645Z,100.00
2022-11-01T01:51:24.655Z,100.00
2022-11-01T01:53:53.359Z,100.00
2022-11-01T01:56:22.598Z,100.00
2022-11-01T01:58:52.384Z,100.00
2022-11-01T02:01:20.448Z,100.00
2022-11-01T02:03:48.525Z,100.00
2022-11-01T02:06:18.887Z,100.00
2022-11-01T02:08:48.044Z,100.00
2022-11-01T02:11:16.537Z,100.00
2022-11-01T02:13:44.735Z,100.00
2022-11-01T02:16:21.031Z,100.00
2022-11-01T02:18:50.353Z,100.00
2022-11-01T02:21:36.990Z,100.00
2022-11-01T02:24:30.916Z,100.00
2022-11-01T02:27:13.440Z,100.00
2022-11-01T02:29:52.853Z,100.00
2022-11-01T02:32:23.658Z,100.00
2022-11-01T02:34:55.200Z,100.00
2022-11-01T02:37:26.342Z,100.00
2022-11-01T02:39:56.797Z,100.00
2022-11-01T02:42:26.122Z,100.00
2022-11-01T02:44:56.483Z,100.00
2022-11-01T02:47:26.244Z,100.00
2022-11-01T02:49:55.959Z,100.00
2022-11-01T02:52:25.227Z,100.00
2022-11-01T02:54:54.313Z,100.00
2022-11-01T02:57:29.702Z,100.00
2022-11-01T03:00:04.926Z,100.00
2022-11-01T03:02:41.091Z,100.00
2022-11-01T03:05:11.982Z,100.00
2022-11-01T03:07:40.158Z,100.00
2022-11-01T03:10:08.898Z,100.00
2022-11-01T03:12:40.499Z,100.00
2022-11-01T03:15:20.857Z,100.00
2022-11-01T03:17:55.728Z,100.00
2022-11-01T03:20:25.147Z,100.00
2022-11-01T03:22:55.372Z,100.00
2022-11-01T03:25:45.733Z,100.00
2022-11-01T03:28:15.587Z,100.00
2022-11-01T03:30:44.898Z,100.00
2022-11-01T03:33:14.757Z,100.00
2022-11-01T03:35:45.942Z,100.00
2022-11-01T03:38:14.919Z,100.00
2022-11-01T03:40:44.133Z,100.00
2022-11-01T03:43:15.189Z,100.00
2022-11-01T03:45:43.153Z,100.00
2022-11-01T03:48:11.167Z,100.00
2022-11-01T03:50:41.010Z,100.00
2022-11-01T03:53:09.012Z,100.00
2022-11-01T03:55:36.970Z,100.00
2022-11-01T03:58:05.220Z,100.00
2022-11-01T04:00:34.626Z,100.00
2022-11-01T04:03:02.991Z,100.00
2022-11-01T04:05:31.552Z,100.00
2022-11-01T04:08:00.913Z,100.00
2022-11-01T04:10:29.181Z,100.00
2022-11-01T04:12:57.377Z,100.00
2022-11-01T04:15:43.392Z,100.00
2022-11-01T04:18:32.271Z,100.00
2022-11-01T04:21:00.325Z,100.00
2022-11-01T04:23:29.681Z,100.00
2022-11-01T04:25:57.633Z,100.00
2022-11-01T04:28:25.574Z,100.00
2022-11-01T04:30:53.546Z,100.00
2022-11-01T04:33:21.507Z,100.00
2022-11-01T04:35:49.441Z,100.00
2022-11-01T04:38:17.452Z,100.00
2022-11-01T04:40:46.807Z,100.00
2022-11-01T04:43:14.787Z,100.00
2022-11-01T04:45:42.780Z,100.00
2022-11-01T04:48:13.713Z,100.00
2022-11-01T04:50:42.078Z,100.00
2022-11-01T04:53:10.368Z,100.00
2022-11-01T04:55:38.360Z,100.00
2022-11-01T04:58:08.636Z,100.00
2022-11-01T05:00:36.649Z,100.00
2022-11-01T05:03:05.838Z,100.00
2022-11-01T05:05:34.028Z,100.00
2022-11-01T05:08:03.153Z,100.00
2022-11-01T05:10:31.343Z,100.00
2022-11-01T05:12:59.532Z,100.00
2022-11-01T05:15:29.077Z,100.00
2022-11-01T05:17:58.566Z,100.00
2022-11-01T05:20:26.612Z,100.00
2022-11-01T05:22:55.023Z,100.00
2022-11-01T05:25:22.997Z,100.00
2022-11-01T05:27:50.943Z,100.00
2022-11-01T05:30:18.954Z,100.00
2022-11-01T05:32:48.292Z,100.00
2022-11-01T05:35:16.337Z,100.00
2022-11-01T05:37:44.370Z,100.00
2022-11-01T05:40:13.074Z,100.00
2022-11-01T05:42:41.036Z,100.00
2022-11-01T05:45:10.285Z,100.00
2022-11-01T05:47:40.414Z,100.00
2022-11-01T05:50:10.902Z,100.00
2022-11-01T05:52:38.907Z,100.00
2022-11-01T05:55:07.610Z,100.00
2022-11-01T05:57:35.640Z,100.00
2022-11-01T06:00:03.884Z,100.00
2022-11-01T06:02:32.604Z,100.00
2022-11-01T06:05:03.020Z,100.00
2022-11-01T06:07:32.689Z,100.00
2022-11-01T06:10:00.656Z,100.00
2022-11-01T06:12:28.629Z,100.00
2022-11-01T06:14:56.620Z,100.00
2022-11-01T06:17:24.694Z,100.00
2022-11-01T06:19:52.643Z,100.00
2022-11-01T06:22:20.631Z,100.00
2022-11-01T06:24:50.044Z,100.00
2022-11-01T06:27:17.998Z,100.00
2022-11-01T06:29:45.939Z,100.00
2022-11-01T06:32:13.871Z,100.00
2022-11-01T06:34:44.848Z,100.00
2022-11-01T06:37:13.154Z,100.00
2022-11-01T06:39:41.562Z,100.00
2022-11-01T06:42:11.347Z,100.00
2022-11-01T06:44:39.321Z,100.00
2022-11-01T06:47:07.345Z,100.00
2022-11-01T06:49:35.349Z,100.00
2022-11-01T06:52:03.389Z,100.00
2022-11-01T06:54:31.376Z,100.00
2022-11-01T06:56:59.366Z,100.00
2022-11-01T06:59:28.651Z,100.00
2022-11-01T07:01:56.790Z,100.00
2022-11-01T07:04:27.103Z,100.00
2022-11-01T07:06:55.067Z,100.00
2022-11-01T07:09:23.238Z,100.00
2022-11-01T07:11:51.206Z,100.00
2022-11-01T07:14:19.207Z,100.00
2022-11-01T07:16:48.847Z,100.00
2022-11-01T07:19:16.935Z,100.00
2022-11-01T07:21:44.853Z,100.00
2022-11-01T07:24:12.880Z,100.00
2022-11-01T07:26:40.864Z,100.00
2022-11-01T07:29:08.853Z,100.00
2022-11-01T07:31:38.929Z,100.00
2022-11-01T07:34:08.438Z,100.00
2022-11-01T07:36:36.411Z,100.00
2022-11-01T07:39:04.485Z,100.00
2022-11-01T07:41:32.457Z,100.00
2022-11-01T07:44:00.441Z,100.00
2022-11-01T07:46:28.386Z,100.00
2022-11-01T07:48:56.423Z,100.00
2022-11-01T07:51:25.752Z,100.00
2022-11-01T07:53:53.761Z,100.00
2022-11-01T07:56:22.006Z,100.00
2022-11-01T07:58:49.961Z,100.00
2022-11-01T08:01:17.997Z,100.00
2022-11-01T08:03:46.096Z,100.00
2022-11-01T08:06:14.059Z,100.00
2022-11-01T08:08:43.430Z,100.00
2022-11-01T08:11:11.373Z,100.00
2022-11-01T08:13:39.350Z,100.00
2022-11-01T08:16:08.858Z,97.53
2022-11-01T08:18:36.856Z,96.17
2022-11-01T08:21:05.043Z,95.18
2022-11-01T08:23:33.036Z,91.79
2022-11-01T08:26:04.108Z,93.23
2022-11-01T08:28:32.123Z,94.00
2022-11-01T08:31:00.048Z,92.36
2022-11-01T08:33:28.044Z,90.22
2022-11-01T08:35:56.044Z,86.17
2022-11-01T08:38:24.024Z,86.35
2022-11-01T08:40:52.039Z,84.41
2022-11-01T08:43:21.386Z,82.59
2022-11-01T08:45:49.362Z,80.08
2022-11-01T08:48:17.361Z,79.41
2022-11-01T08:50:45.300Z,78.07
2022-11-01T08:53:14.463Z,76.93
2022-11-01T08:55:42.849Z,75.66
2022-11-01T08:58:11.113Z,73.27
2022-11-01T09:00:40.473Z,72.19
2022-11-01T09:03:08.414Z,70.80
2022-11-01T09:05:36.753Z,70.26
2022-11-01T09:08:05.316Z,71.14
2022-11-01T09:10:33.622Z,70.24
2022-11-01T09:13:02.081Z,70.01
2022-11-01T09:15:30.450Z,69.35
2022-11-01T09:17:59.821Z,67.83
2022-11-01T09:20:28.439Z,65.60
2022-11-01T09:22:56.491Z,64.10
2022-11-01T09:25:24.924Z,64.33
2022-11-01T09:27:52.886Z,64.45
2022-11-01T09:30:21.497Z,60.20
2022-11-01T09:32:49.457Z,58.78
2022-11-01T09:35:19.189Z,58.25
2022-11-01T09:37:47.131Z,57.57
2022-11-01T09:40:15.502Z,57.78
2022-11-01T09:42:44.826Z,55.78
2022-11-01T09:45:17.359Z,54.45
2022-11-01T09:47:46.293Z,52.54
2022-11-01T09:50:18.753Z,51.91
2022-11-01T09:52:46.702Z,51.27
2022-11-01T09:55:15.821Z,51.97
2022-11-01T09:57:45.986Z,52.75
2022-11-01T10:00:14.854Z,52.09
2022-11-01T10:03:03.058Z,53.02
2022-11-01T10:05:45.917Z,51.35
2022-11-01T10:08:17.634Z,51.63
2022-11-01T10:10:48.079Z,51.87
2022-11-01T10:13:27.398Z,51.70
2022-11-01T10:15:58.166Z,50.92
2022-11-01T10:18:29.453Z,49.82
2022-11-01T10:20:59.680Z,48.81
2022-11-01T10:23:40.297Z,48.09
2022-11-01T10:26:08.253Z,45.97
2022-11-01T10:28:42.413Z,45.39
2022-11-01T10:31:13.249Z,45.34
2022-11-01T10:33:42.425Z,44.41
2022-11-01T10:36:14.780Z,44.03
2022-11-01T10:39:29.893Z,43.89
2022-11-01T10:41:33.491Z,43.60
2022-11-01T10:44:03.690Z,42.66
2022-11-01T10:46:33.173Z,41.19
2022-11-01T10:49:02.585Z,41.30
2022-11-01T10:51:32.684Z,41.43
2022-11-01T10:54:02.408Z,41.88
2022-11-01T10:56:32.373Z,41.17
2022-11-01T10:59:02.031Z,39.69
2022-11-01T11:01:31.632Z,39.91
2022-11-01T11:04:01.464Z,39.18
2022-11-01T11:06:29.479Z,38.61
2022-11-01T11:08:59.446Z,36.49
2022-11-01T11:11:33.111Z,35.40
2022-11-01T11:14:01.083Z,36.09
2022-11-01T11:16:32.315Z,36.73
2022-11-01T11:19:04.025Z,36.30
2022-11-01T11:21:35.937Z,34.84
2022-11-01T11:24:05.538Z,32.66
2022-11-01T11:26:38.694Z,32.16
2022-11-01T11:29:07.036Z,31.26
2022-11-01T11:31:35.272Z,30.66
2022-11-01T11:34:06.186Z,30.98
2022-11-01T11:36:35.287Z,30.63
2022-11-01T11:39:03.715Z,31.33
2022-11-01T11:41:33.597Z,33.14
2022-11-01T11:44:01.627Z,35.32
2022-11-01T11:46:29.580Z,36.48
2022-11-01T11:48:59.204Z,37.58
2022-11-01T11:51:27.906Z,38.27
2022-11-01T11:54:22.820Z,40.37
2022-11-01T11:56:54.179Z,40.86
2022-11-01T11:59:26.865Z,41.71
2022-11-01T12:01:59.510Z,41.79
2022-11-01T12:04:30.235Z,41.68
2022-11-01T12:06:58.293Z,42.92
2022-11-01T12:09:43.811Z,43.31
2022-11-01T12:12:18.838Z,43.70
2022-11-01T12:14:46.909Z,43.62
2022-11-01T12:17:27.820Z,43.63
2022-11-01T12:20:11.286Z,43.68
2022-11-01T12:22:40.714Z,44.72
2022-11-01T12:25:11.967Z,45.28
2022-11-01T12:27:41.321Z,45.25
2022-11-01T12:30:12.439Z,44.98
2022-11-01T12:32:45.109Z,44.77
2022-11-01T12:35:19.390Z,44.68
2022-11-01T12:37:51.477Z,45.33
2022-11-01T12:40:20.307Z,44.51
2022-11-01T12:42:52.020Z,44.80
2022-11-01T12:45:24.398Z,45.11
2022-11-01T12:47:54.402Z,44.95
2022-11-01T12:50:23.340Z,45.40
2022-11-01T12:52:52.381Z,45.64
2022-11-01T12:55:23.874Z,45.40
2022-11-01T12:57:53.173Z,45.13
2022-11-01T13:00:21.500Z,45.31
2022-11-01T13:02:58.064Z,45.28
2022-11-01T13:05:28.021Z,46.02
2022-11-01T13:08:01.109Z,46.16
2022-11-01T13:10:33.341Z,45.85
2022-11-01T13:13:07.610Z,46.12
2022-11-01T13:15:37.996Z,46.41
2022-11-01T13:18:10.480Z,46.81
2022-11-01T13:20:47.302Z,46.35
2022-11-01T13:23:22.602Z,45.65
2022-11-01T13:25:53.651Z,46.23
2022-11-01T13:28:41.081Z,45.96
2022-11-01T13:31:12.519Z,46.39
2022-11-01T13:33:43.355Z,46.88
2022-11-01T13:36:14.642Z,46.83
2022-11-01T13:38:44.450Z,46.12
2022-11-01T13:41:19.821Z,45.01
2022-11-01T13:43:50.944Z,45.61
2022-11-01T13:46:39.868Z,45.28
2022-11-01T13:49:30.380Z,46.23
2022-11-01T13:52:01.539Z,46.32
2022-11-01T13:54:31.813Z,46.19
2022-11-01T13:57:01.608Z,46.42
2022-11-01T13:59:33.204Z,46.72
2022-11-01T14:02:42.631Z,46.94
2022-11-01T14:05:11.000Z,46.53
2022-11-01T14:07:39.465Z,46.46
2022-11-01T14:10:11.037Z,46.93
2022-11-01T14:12:43.415Z,47.57
2022-11-01T14:15:23.642Z,47.71
2022-11-01T14:18:08.552Z,48.14
2022-11-01T14:20:50.856Z,48.42
2022-11-01T14:23:54.866Z,48.08
2022-11-01T14:27:07.910Z,49.21
2022-11-01T14:29:37.250Z,49.51
2022-11-01T14:32:06.633Z,50.19
2022-11-01T14:34:36.154Z,51.57
2022-11-01T14:37:21.709Z,52.64
2022-11-01T14:39:53.923Z,52.69
2022-11-01T14:42:26.498Z,54.29
2022-11-01T14:44:54.956Z,56.03
2022-11-01T14:47:29.237Z,57.69
2022-11-01T14:49:58.219Z,58.64
2022-11-01T14:52:31.170Z,59.62
2022-11-01T14:55:04.814Z,60.77
2022-11-01T14:57:33.435Z,62.84
2022-11-01T15:00:12.695Z,65.68
2022-11-01T15:02:42.093Z,68.12
2022-11-01T15:05:14.350Z,70.02
2022-11-01T15:07:42.369Z,71.22
2022-11-01T15:10:11.316Z,72.52
2022-11-01T15:12:47.523Z,74.03
2022-11-01T15:15:17.265Z,75.00
2022-11-01T15:17:50.987Z,76.07
2022-11-01T15:20:19.047Z,77.96
2022-11-01T15:22:46.987Z,79.08
2022-11-01T15:25:21.121Z,79.09
2022-11-01T15:27:49.095Z,79.91
2022-11-01T15:30:20.824Z,80.85
2022-11-01T15:32:53.298Z,81.13
2022-11-01T15:35:22.909Z,82.39
2022-11-01T15:37:53.265Z,83.46
2022-11-01T15:40:29.080Z,84.65
2022-11-01T15:42:58.211Z,85.41
2022-11-01T15:45:29.689Z,86.17
2022-11-01T15:48:00.978Z,86.68
2022-11-01T15:50:29.971Z,87.57
2022-11-01T15:53:04.014Z,88.33
2022-11-01T15:55:33.464Z,89.73
2022-11-01T15:58:05.671Z,90.18
2022-11-01T16:00:34.932Z,91.08
2022-11-01T16:03:06.180Z,92.53
2022-11-01T16:05:36.634Z,93.76
2022-11-01T16:08:07.318Z,94.60
2022-11-01T16:10:35.577Z,94.74
2022-11-01T16:13:03.885Z,95.11
2022-11-01T16:15:33.098Z,95.53
2022-11-01T16:18:02.458Z,96.88
2022-11-01T16:20:34.058Z,97.44
2022-11-01T16:23:02.291Z,98.43
2022-11-01T16:25:31.682Z,98.93
2022-11-01T16:28:04.723Z,99.63
2022-11-01T16:30:37.820Z,100.00
2022-11-01T16:33:25.035Z,100.00
2022-11-01T16:35:55.254Z,100.00
2022-11-01T16:38:28.265Z,100.00
2022-11-01T16:40:57.529Z,100.00
2022-11-01T16:43:25.821Z,100.00
2022-11-01T16:45:54.046Z,100.00
2022-11-01T16:48:23.592Z,100.00
2022-11-01T16:50:54.054Z,100.00
2022-11-01T16:53:22.199Z,100.00
2022-11-01T16:55:50.194Z,100.00
2022-11-01T16:58:18.718Z,100.00
2022-11-01T17:00:53.740Z,100.00
2022-11-01T17:03:22.199Z,100.00
2022-11-01T17:05:55.177Z,100.00
2022-11-01T17:08:26.311Z,100.00
2022-11-01T17:10:54.273Z,100.00
2022-11-01T17:13:22.249Z,100.00
2022-11-01T17:15:51.573Z,100.00
2022-11-01T17:18:25.558Z,100.00
2022-11-01T17:20:55.849Z,100.00
2022-11-01T17:23:26.355Z,100.00
2022-11-01T17:25:54.532Z,100.00
2022-11-01T17:28:24.989Z,100.00
2022-11-01T17:30:53.027Z,100.00
2022-11-01T17:33:21.475Z,100.00
2022-11-01T17:35:49.532Z,100.00
2022-11-01T17:38:18.761Z,100.00
2022-11-01T17:40:49.572Z,100.00
2022-11-01T17:43:18.876Z,100.00
2022-11-01T17:45:46.952Z,100.00
2022-11-01T17:48:15.154Z,100.00
2022-11-01T17:50:43.197Z,100.00
2022-11-01T17:53:12.691Z,100.00
2022-11-01T17:55:40.652Z,100.00
2022-11-01T17:58:10.900Z,100.00
2022-11-01T18:00:41.615Z,100.00
2022-11-01T18:03:10.124Z,100.00
2022-11-01T18:05:38.571Z,100.00
2022-11-01T18:08:16.682Z,100.00
2022-11-01T18:10:47.343Z,100.00
2022-11-01T18:13:31.495Z,100.00
2022-11-01T18:16:02.205Z,100.00
2022-11-01T18:18:38.390Z,100.00
2022-11-01T18:21:11.667Z,100.00
2022-11-01T18:23:40.255Z,100.00
2022-11-01T18:26:11.856Z,100.00
2022-11-01T18:28:41.242Z,100.00
2022-11-01T18:31:13.683Z,100.00
2022-11-01T18:33:44.559Z,100.00
2022-11-01T18:36:14.934Z,100.00
2022-11-01T18:38:44.732Z,100.00
2022-11-01T18:41:13.552Z,100.00
2022-11-01T18:43:43.180Z,100.00
2022-11-01T18:46:30.661Z,100.00
2022-11-01T18:49:00.908Z,100.00
2022-11-01T18:51:29.811Z,100.00
2022-11-01T18:54:00.486Z,100.00
2022-11-01T18:56:28.500Z,100.00
2022-11-01T18:59:00.501Z,100.00
2022-11-01T19:01:31.884Z,100.00
2022-11-01T19:04:02.539Z,100.00
2022-11-01T19:06:30.776Z,100.00
2022-11-01T19:08:59.473Z,100.00
2022-11-01T19:11:27.562Z,100.00
2022-11-01T19:13:56.911Z,100.00
2022-11-01T19:16:24.857Z,100.00
2022-11-01T19:18:52.968Z,100.00
2022-11-01T19:21:21.656Z,100.00
2022-11-01T19:23:50.605Z,100.00
2022-11-01T19:26:22.328Z,100.00
2022-11-01T19:28:52.388Z,100.00
2022-11-01T19:31:25.853Z,100.00
2022-11-01T19:33:56.528Z,100.00
2022-11-01T19:36:25.907Z,100.00
2022-11-01T19:38:53.888Z,100.00
2022-11-01T19:41:23.680Z,100.00
2022-11-01T19:43:54.101Z,100.00
2022-11-01T19:46:23.428Z,100.00
2022-11-01T19:48:51.358Z,100.00
2022-11-01T19:51:21.390Z,100.00
2022-11-01T19:53:49.321Z,100.00
2022-11-01T19:56:18.488Z,100.00
2022-11-01T19:58:48.941Z,100.00
2022-11-01T20:01:48.653Z,100.00
2022-11-01T20:04:27.737Z,100.00
2022-11-01T20:06:57.693Z,100.00
2022-11-01T20:09:26.627Z,100.00
2022-11-01T20:11:54.585Z,100.00
2022-11-01T20:14:22.561Z,100.00
2022-11-01T20:16:51.965Z,100.00
2022-11-01T20:19:20.455Z,100.00
2022-11-01T20:21:48.401Z,100.00
2022-11-01T20:24:16.497Z,100.00
2022-11-01T20:26:44.489Z,100.00
2022-11-01T20:29:12.440Z,100.00
2022-11-01T20:31:40.403Z,100.00
2022-11-01T20:34:10.236Z,100.00
2022-11-01T20:36:38.769Z,100.00
2022-11-01T20:39:09.149Z,100.00
2022-11-01T20:41:39.663Z,100.00
2022-11-01T20:44:07.806Z,100.00
2022-11-01T20:46:35.937Z,100.00
2022-11-01T20:49:04.154Z,100.00
2022-11-01T20:51:33.514Z,100.00
2022-11-01T20:54:01.435Z,100.00
2022-11-01T20:56:29.430Z,100.00
2022-11-01T20:58:57.460Z,100.00
2022-11-01T21:01:25.652Z,100.00
2022-11-01T21:03:53.708Z,100.00
2022-11-01T21:06:21.653Z,100.00
2022-11-01T21:08:50.985Z,100.00
2022-11-01T21:11:22.989Z,100.00
2022-11-01T21:13:51.874Z,100.00
2022-11-01T21:16:24.163Z,100.00
2022-11-01T21:18:53.048Z,100.00
2022-11-01T21:21:36.343Z,100.00
2022-11-01T21:24:28.420Z,100.00
2022-11-01T21:27:17.458Z,100.00
2022-11-01T21:29:46.422Z,100.00
2022-11-01T21:32:30.055Z,100.00
2022-11-01T21:34:58.753Z,100.00
2022-11-01T21:37:29.308Z,100.00
2022-11-01T21:40:04.865Z,100.00
2022-11-01T21:42:35.552Z,100.00
2022-11-01T21:45:03.831Z,100.00
2022-11-01T21:47:31.937Z,100.00
2022-11-01T21:49:59.953Z,100.00
2022-11-01T21:52:28.004Z,100.00
2022-11-01T21:54:55.965Z,100.00
2022-11-01T21:57:25.305Z,100.00
2022-11-01T21:59:53.222Z,100.00
2022-11-01T22:02:21.237Z,100.00
2022-11-01T22:04:49.233Z,100.00
2022-11-01T22:07:17.185Z,100.00
2022-11-01T22:09:45.137Z,100.00
2022-11-01T22:12:13.087Z,100.00
2022-11-01T22:14:42.406Z,100.00
2022-11-01T22:17:10.445Z,100.00
2022-11-01T22:19:38.434Z,100.00
2022-11-01T22:22:06.349Z,100.00
2022-11-01T22:24:34.401Z,100.00
2022-11-01T22:27:03.174Z,100.00
2022-11-01T22:29:31.143Z,100.00
2022-11-01T22:32:00.496Z,100.00
2022-11-01T22:34:28.549Z,100.00
2022-11-01T22:36:56.508Z,100.00
2022-11-01T22:39:25.477Z,100.00
2022-11-01T22:41:53.827Z,100.00
2022-11-01T22:44:27.086Z,100.00
2022-11-01T22:46:58.734Z,100.00
2022-11-01T22:49:29.473Z,100.00
2022-11-01T22:51:58.059Z,100.00
2022-11-01T22:54:29.329Z,100.00
2022-11-01T22:57:02.627Z,100.00
2022-11-01T22:59:33.367Z,100.00
2022-11-01T23:02:25.013Z,100.00
2022-11-01T23:04:59.681Z,100.00
2022-11-01T23:07:32.532Z,100.00
2022-11-01T23:10:05.453Z,100.00
2022-11-01T23:12:51.836Z,100.00
2022-11-01T23:15:24.083Z,100.00
2022-11-01T23:17:52.055Z,100.00
2022-11-01T23:20:21.377Z,100.00
2022-11-01T23:22:49.323Z,100.00
2022-11-01T23:25:17.241Z,100.00
2022-11-01T23:27:45.737Z,100.00
2022-11-01T23:30:14.072Z,100.00
2022-11-01T23:32:42.575Z,100.00
2022-11-01T23:35:13.896Z,100.00
2022-11-01T23:37:43.378Z,100.00
2022-11-01T23:40:15.163Z,100.00
2022-11-01T23:42:43.178Z,100.00
2022-11-01T23:45:21.716Z,100.00
2022-11-01T23:47:50.045Z,100.00
2022-11-01T23:50:20.214Z,100.00
2022-11-01T23:52:51.954Z,100.00
2022-11-01T23:55:23.883Z,100.00
2022-11-01T23:57:53.396Z,100.00
